Time;durP1;ratioP1;P1;durP2;ratioP2;P2;SDS_P1;SDS_P2;PMS_P1;PMS_P2;Temp;Humidity;BMP_temperature;BMP_pressure;BME280_temperature;BME280_humidity;BME280_pressure;Samples;Min_cycle;Max_cycle;Signal;HPM_P1;HPM_P2
2022/06/23 00:01:59;;;;;;;12.60;6.05;;;;;;;24.85;65.77;97649.00;5346505;26;20064;-83
2022/06/23 00:04:46;;;;;;;13.15;6.00;;;;;;;24.54;68.47;97654.09;5346264;26;20103;-83
2022/06/23 00:07:39;;;;;;;11.77;5.62;;;;;;;23.64;71.21;97653.78;5325369;26;20124;-83
2022/06/23 00:10:28;;;;;;;11.80;5.68;;;;;;;23.30;71.54;97663.44;5322124;26;20457;-83
2022/06/23 00:12:55;;;;;;;12.23;6.32;;;;;;;23.59;72.88;97676.28;5346554;26;20459;-83
2022/06/23 00:15:36;;;;;;;13.65;5.32;;;;;;;24.13;71.24;97687.41;5346558;26;20116;-83
2022/06/23 00:18:06;;;;;;;11.20;5.37;;;;;;;23.36;73.58;97691.75;5345873;26;20135;-82
2022/06/23 00:20:52;;;;;;;10.40;5.20;;;;;;;23.22;74.59;97685.25;5345899;26;20663;-82
2022/06/23 00:23:32;;;;;;;11.32;5.45;;;;;;;23.20;74.86;97694.28;5326741;26;20124;-83
2022/06/23 00:26:02;;;;;;;10.88;5.20;;;;;;;23.62;72.47;97689.16;5326412;26;20052;-82
2022/06/23 00:28:33;;;;;;;11.90;5.05;;;;;;;21.96;79.38;97682.63;5326440;26;20471;-82
2022/06/23 00:31:02;;;;;;;12.07;5.50;;;;;;;22.83;75.89;97681.28;5326683;26;20551;-83
2022/06/23 00:33:41;;;;;;;11.57;5.47;;;;;;;23.64;72.57;97689.84;5345933;26;20556;-83
2022/06/23 00:36:38;;;;;;;10.55;5.72;;;;;;;23.58;73.52;97688.62;5326786;26;20112;-83
2022/06/23 00:39:18;;;;;;;11.27;5.15;;;;;;;25.17;66.85;97681.69;5306481;26;20406;-83
2022/06/23 00:41:45;;;;;;;10.90;5.47;;;;;;;24.66;68.70;97680.97;5326592;26;20124;-83
2022/06/23 00:44:22;;;;;;;12.52;4.95;;;;;;;25.71;64.58;97682.78;5326305;26;20614;-83
2022/06/23 00:46:50;;;;;;;;;;;;;;;25.74;64.00;97684.28;5326715;26;20068;-83
2022/06/23 00:49:26;;;;;;;10.18;5.35;;;;;;;25.61;64.49;97671.53;5326534;26;20012;-82
2022/06/23 00:51:56;;;;;;;12.70;4.97;;;;;;;25.03;66.85;97673.47;5346315;26;20076;-82
2022/06/23 00:54:24;;;;;;;10.45;4.87;;;;;;;25.44;65.45;97662.03;5345891;26;20108;-82
2022/06/23 00:57:33;;;;;;;10.75;5.03;;;;;;;25.46;64.42;97660.87;5326674;26;20419;-83
2022/06/23 01:00:07;;;;;;;;;;;;;;;24.83;66.25;97664.19;5255382;27;20129;-83
2022/06/23 01:02:39;;;;;;;10.82;4.85;;;;;;;24.78;67.40;97663.88;5238344;27;19969;-83
2022/06/23 01:05:14;;;;;;;11.45;5.37;;;;;;;25.31;65.85;97658.09;5306894;26;20131;-82
2022/06/23 01:07:43;;;;;;;10.65;5.35;;;;;;;24.58;67.48;97655.44;5345682;26;20052;-82
2022/06/23 01:10:24;;;;;;;11.43;5.68;;;;;;;25.24;66.09;97667.66;5346192;26;20100;-83
2022/06/23 01:12:58;;;;;;;10.70;5.90;;;;;;;25.48;65.47;97681.81;5326661;26;20069;-83
2022/06/23 01:15:41;;;;;;;11.20;5.43;;;;;;;25.44;65.30;97678.69;5346000;26;20109;-83
2022/06/23 01:18:30;;;;;;;10.77;6.37;;;;;;;25.39;66.45;97668.63;5326537;26;20072;-83
2022/06/23 01:21:12;;;;;;;13.40;6.18;;;;;;;25.61;65.95;97677.66;5325740;26;20040;-83
2022/06/23 01:24:21;;;;;;;11.35;5.93;;;;;;;24.67;69.30;97686.13;5346290;26;20468;-83
2022/06/23 01:26:51;;;;;;;13.52;6.05;;;;;;;24.87;68.79;97694.53;5334440;26;20432;-83
2022/06/23 01:29:37;;;;;;;11.23;5.37;;;;;;;25.33;66.26;97703.62;5345609;26;20116;-83
2022/06/23 01:32:24;;;;;;;11.02;5.80;;;;;;;25.00;66.60;97696.69;5326319;26;20048;-83
2022/06/23 01:35:12;;;;;;;12.32;5.70;;;;;;;24.42;68.63;97701.03;5326284;26;20068;-83
2022/06/23 01:37:53;;;;;;;12.23;5.40;;;;;;;24.26;69.25;97698.34;5326641;26;20060;-82
2022/06/23 01:40:29;;;;;;;12.32;5.90;;;;;;;24.00;70.06;97695.75;5345964;26;20064;-83
2022/06/23 01:43:11;;;;;;;10.10;5.20;;;;;;;24.45;68.27;97692.81;5325957;26;20111;-83
2022/06/23 01:45:56;;;;;;;11.23;5.20;;;;;;;23.29;72.30;97685.47;5346180;26;20385;-83
2022/06/23 01:51:23;;;;;;;10.60;5.50;;;;;;;23.79;71.06;97703.22;5346079;26;20048;-83
2022/06/23 01:53:53;;;;;;;11.12;5.20;;;;;;;24.33;68.87;97703.81;5346042;26;20048;-83
2022/06/23 01:56:27;;;;;;;10.32;5.28;;;;;;;25.29;65.08;97701.47;5345032;26;20119;-83
2022/06/23 01:59:00;;;;;;;10.40;5.37;;;;;;;24.92;66.08;97694.88;5326430;26;20115;-83
2022/06/23 02:01:46;;;;;;;9.57;5.12;;;;;;;25.32;64.53;97693.25;5326190;26;20062;-83
2022/06/23 02:04:26;;;;;;;10.55;5.18;;;;;;;25.45;63.87;97696.19;5345532;26;20052;-83
2022/06/23 02:06:56;;;;;;;10.10;5.30;;;;;;;25.36;64.28;97692.75;5326224;26;20100;-83
2022/06/23 02:09:47;;;;;;;11.82;4.87;;;;;;;25.29;63.88;97702.31;5345735;26;20459;-83
2022/06/23 02:12:33;;;;;;;9.88;5.10;;;;;;;25.60;62.21;97702.44;5313520;26;20107;-83
2022/06/23 02:15:16;;;;;;;12.68;5.47;;;;;;;25.36;63.06;97710.41;5345993;26;20078;-83
2022/06/23 02:17:51;;;;;;;12.00;5.47;;;;;;;25.52;61.67;97718.31;5345491;26;20370;-82
2022/06/23 02:20:40;;;;;;;9.90;5.07;;;;;;;26.36;58.75;97722.19;5345527;26;20426;-83
2022/06/23 02:23:10;;;;;;;11.32;5.57;;;;;;;25.79;60.40;97718.94;5326097;26;20055;-83
2022/06/23 02:25:42;;;;;;;10.10;5.15;;;;;;;26.33;60.09;97716.41;5325737;26;20063;-83
2022/06/23 02:28:15;;;;;;;11.18;5.15;;;;;;;26.32;60.07;97714.78;5326269;26;20151;-82
2022/06/23 02:30:45;;;;;;;11.32;5.22;;;;;;;26.23;58.19;97717.44;5325987;26;20068;-83
2022/06/23 02:33:19;;;;;;;10.27;5.25;;;;;;;25.95;60.54;97706.50;5325759;26;20067;-83
2022/06/23 02:36:02;;;;;;;9.77;4.95;;;;;;;26.41;59.19;97713.78;5345819;26;20049;-83
2022/06/23 02:38:33;;;;;;;13.20;5.68;;;;;;;25.91;60.81;97709.66;5325561;26;20116;-83
2022/06/23 02:41:11;;;;;;;9.73;5.22;;;;;;;25.46;62.33;97704.94;5345536;26;20124;-83
2022/06/23 02:43:44;;;;;;;10.40;5.80;;;;;;;25.93;61.30;97718.22;5345820;26;20048;-83
2022/06/23 02:46:26;;;;;;;10.18;5.37;;;;;;;25.64;62.12;97710.84;5345237;26;20119;-83
2022/06/23 02:49:35;;;;;;;11.75;5.10;;;;;;;25.89;61.82;97727.50;5345525;26;20064;-83
2022/06/23 02:52:20;;;;;;;;;;;;;;;25.59;62.40;97727.19;5325899;26;20136;-83
2022/06/23 02:54:54;;;;;;;13.02;5.18;;;;;;;25.89;61.54;97736.25;5345711;26;20026;-83
2022/06/23 02:58:00;;;;;;;10.88;5.37;;;;;;;25.68;61.91;97742.03;5325895;26;20095;-83
2022/06/23 03:00:47;;;;;;;12.07;5.72;;;;;;;25.36;62.26;97742.09;5342308;26;20076;-83
2022/06/23 03:03:22;;;;;;;14.23;5.93;;;;;;;25.48;62.22;97750.50;5345608;26;20056;-83
2022/06/23 03:05:55;;;;;;;11.90;5.07;;;;;;;25.31;63.73;97745.25;5345736;26;20082;-83
2022/06/23 03:08:30;;;;;;;10.73;5.32;;;;;;;25.13;62.30;97739.28;5346395;26;20064;-83
2022/06/23 03:11:03;;;;;;;9.48;5.15;;;;;;;25.46;61.37;97739.28;5326844;26;20132;-83
2022/06/23 03:13:54;;;;;;;11.82;5.55;;;;;;;24.55;64.75;97745.41;5346270;26;20057;-83
2022/06/23 03:16:35;;;;;;;11.57;5.72;;;;;;;24.10;64.79;97754.44;5346806;26;20089;-83
2022/06/23 03:19:27;;;;;;;11.23;5.37;;;;;;;24.74;63.11;97753.06;5346280;26;20052;-83
2022/06/23 03:22:02;;;;;;;12.95;5.12;;;;;;;25.14;62.58;97755.94;5326498;26;20395;-83
2022/06/23 03:24:32;;;;;;;9.13;4.90;;;;;;;25.65;60.84;97766.16;5346620;26;20115;-83
2022/06/23 03:27:16;;;;;;;10.25;5.25;;;;;;;25.95;58.81;97771.78;5326510;26;20068;-83
2022/06/23 03:30:04;;;;;;;12.30;6.00;;;;;;;25.54;60.30;97784.19;5326839;26;20131;-83
2022/06/23 03:32:45;;;;;;;10.48;5.35;;;;;;;25.72;60.87;97787.47;5346701;26;20155;-83
2022/06/23 03:35:29;;;;;;;10.90;5.20;;;;;;;26.44;58.01;97792.78;5346328;26;20112;-83
2022/06/23 03:38:02;;;;;;;10.65;4.90;;;;;;;25.38;61.55;97788.47;5346485;26;20124;-83
2022/06/23 03:43:32;;;;;;;10.82;5.32;;;;;;;25.64;60.38;97795.41;5304942;26;20109;-83
2022/06/23 03:46:17;;;;;;;10.15;5.15;;;;;;;24.93;62.87;97806.53;5346608;26;20379;-83
2022/06/23 03:48:47;;;;;;;12.45;5.18;;;;;;;24.19;64.47;97813.31;5346014;26;20048;-83
2022/06/23 03:51:35;;;;;;;12.68;5.32;;;;;;;24.36;64.99;97799.25;5346414;26;20075;-83
2022/06/23 03:54:10;;;;;;;10.68;4.90;;;;;;;24.83;63.74;97803.22;5346472;26;20131;-82
2022/06/23 03:57:03;;;;;;;8.77;4.70;;;;;;;25.73;59.34;97793.59;5346192;26;20117;-83
2022/06/23 03:59:41;;;;;;;8.15;4.50;;;;;;;25.59;59.54;97800.34;5326665;26;20165;-82
2022/06/23 04:02:15;;;;;;;11.10;4.85;;;;;;;25.55;59.85;97814.88;5326418;26;20123;-82
2022/06/23 04:04:52;;;;;;;11.88;5.20;;;;;;;25.10;61.37;97818.81;5326851;26;20075;-82
2022/06/23 04:07:28;;;;;;;11.40;5.65;;;;;;;25.25;61.24;97819.00;5326864;26;20117;-83
2022/06/23 04:10:10;;;;;;;13.13;5.62;;;;;;;25.09;62.45;97818.00;5345854;26;20459;-83
2022/06/23 04:13:02;;;;;;;10.68;5.15;;;;;;;25.17;62.28;97821.63;5330185;26;20045;-82
2022/06/23 04:15:32;;;;;;;10.52;4.82;;;;;;;25.64;60.57;97824.47;5326855;26;20180;-83
2022/06/23 04:18:06;;;;;;;9.82;4.90;;;;;;;25.67;60.00;97819.66;5346013;26;20063;-82
2022/06/23 04:20:39;;;;;;;9.13;4.93;;;;;;;25.48;60.52;97820.00;5346095;26;20053;-82
2022/06/23 04:23:12;;;;;;;11.45;4.80;;;;;;;25.27;61.04;97838.13;5326558;26;20480;-82
2022/06/23 04:25:57;;;;;;;11.80;5.15;;;;;;;25.26;61.76;97836.47;5346628;26;20127;-82
2022/06/23 04:28:29;;;;;;;12.02;5.15;;;;;;;25.05;61.76;97847.50;5326763;26;20117;-82
2022/06/23 04:30:58;;;;;;;12.73;5.05;;;;;;;25.54;60.02;97835.19;5346011;26;20068;-83
2022/06/23 04:33:27;;;;;;;12.50;5.07;;;;;;;25.20;61.81;97845.03;5346403;26;20123;-83
2022/06/23 04:35:59;;;;;;;13.18;5.30;;;;;;;25.44;61.72;97862.75;5346545;26;20061;-83
2022/06/23 04:38:36;;;;;;;13.73;5.28;;;;;;;26.48;57.98;97858.41;5326703;26;20060;-83
2022/06/23 04:41:13;;;;;;;9.30;5.00;;;;;;;26.67;57.29;97859.00;5346568;26;20061;-82
2022/06/23 04:43:45;;;;;;;;;;;;;;;26.25;59.53;97862.72;5327037;26;20065;-82
2022/06/23 04:46:19;;;;;;;11.57;4.97;;;;;;;25.53;62.64;97870.53;5326391;26;19971;-82
2022/06/23 04:49:05;;;;;;;11.40;5.18;;;;;;;26.27;58.81;97871.34;5326730;26;20080;-82
2022/06/23 04:51:38;;;;;;;12.32;5.60;;;;;;;25.85;60.92;97871.56;5326201;26;20533;-82
2022/06/23 04:54:11;;;;;;;9.55;5.28;;;;;;;25.72;62.95;97872.03;5327081;26;20048;-82
2022/06/23 04:56:38;;;;;;;11.05;5.87;;;;;;;25.93;63.39;97866.25;5346305;26;20104;-82
2022/06/23 04:59:14;;;;;;;13.00;5.75;;;;;;;26.48;61.99;97865.53;5345770;26;20101;-82
2022/06/23 05:01:44;;;;;;;10.75;5.75;;;;;;;26.90;59.50;97880.22;5346204;26;20111;-82
2022/06/23 05:04:20;;;;;;;12.43;6.10;;;;;;;27.18;57.74;97888.56;5326599;26;20429;-82
2022/06/23 05:06:50;;;;;;;10.98;5.53;;;;;;;27.15;58.98;97897.69;5346021;26;20076;-82
2022/06/23 05:09:29;;;;;;;13.65;5.40;;;;;;;27.67;56.31;97892.59;5346180;26;20073;-82
2022/06/23 05:12:02;;;;;;;11.20;5.03;;;;;;;28.40;53.83;97885.00;5326515;26;20116;-82
2022/06/23 05:14:50;;;;;;;10.48;5.25;;;;;;;28.99;53.96;97895.59;5326220;26;20123;-82
2022/06/23 05:17:21;;;;;;;9.35;5.03;;;;;;;29.52;51.50;97891.75;5326549;26;20128;-81
2022/06/23 05:19:48;;;;;;;11.40;4.82;;;;;;;29.95;50.23;97899.69;5321846;27;20071;-82
2022/06/23 05:22:39;;;;;;;10.85;5.65;;;;;;;30.08;49.35;97909.66;5322531;26;20459;-83
2022/06/23 05:25:29;;;;;;;8.73;4.57;;;;;;;30.60;48.47;97901.22;5318230;27;20068;-82
2022/06/23 05:27:56;;;;;;;8.95;4.68;;;;;;;31.21;46.06;97895.19;5323481;26;20411;-82
2022/06/23 05:30:30;;;;;;;9.57;4.82;;;;;;;31.27;46.18;97905.06;5323745;26;20065;-82
2022/06/23 05:33:01;;;;;;;9.40;4.70;;;;;;;31.60;46.36;97905.16;5322531;27;20111;-82
2022/06/23 05:35:42;;;;;;;8.77;4.45;;;;;;;31.35;44.63;97908.34;5323766;26;20052;-82
2022/06/23 05:38:19;;;;;;;11.15;4.45;;;;;;;30.19;46.94;97898.47;5322617;27;20132;-82
2022/06/23 05:40:48;;;;;;;9.43;4.78;;;;;;;31.13;44.56;97906.81;5323385;26;20071;-82
2022/06/23 05:43:16;;;;;;;10.60;4.82;;;;;;;30.92;45.20;97914.91;5323850;26;20064;-82
2022/06/23 05:45:46;;;;;;;9.27;4.95;;;;;;;29.66;48.89;97925.41;5322491;27;20051;-82
2022/06/23 05:48:20;;;;;;;10.68;5.03;;;;;;;29.21;50.71;97928.34;5323500;26;20077;-82
2022/06/23 05:50:52;;;;;;;9.38;4.62;;;;;;;29.82;48.91;97924.34;5323737;26;20127;-82
2022/06/23 05:53:35;;;;;;;11.75;5.20;;;;;;;30.04;48.31;97925.16;5322498;27;20064;-82
2022/06/23 05:56:13;;;;;;;8.95;5.22;;;;;;;29.72;49.74;97926.50;5322044;27;20068;-83
2022/06/23 05:58:52;;;;;;;10.77;5.50;;;;;;;30.02;48.79;97942.31;5321756;27;20080;-82
2022/06/23 06:01:28;;;;;;;9.80;5.20;;;;;;;29.34;50.88;97933.81;5323063;26;20069;-82
2022/06/23 06:04:03;;;;;;;9.80;5.43;;;;;;;29.26;51.19;97936.59;5323787;26;20059;-82
2022/06/23 06:06:32;;;;;;;9.25;4.80;;;;;;;29.82;50.59;97934.16;5323477;26;20055;-83
2022/06/23 06:11:50;;;;;;;9.48;4.55;;;;;;;30.13;47.96;97929.34;5323245;26;20114;-82
2022/06/23 06:14:21;;;;;;;8.90;4.40;;;;;;;30.61;46.24;97932.12;5323457;26;20095;-82
2022/06/23 06:16:48;;;;;;;10.70;4.80;;;;;;;30.88;44.89;97929.66;5321994;27;20080;-82
2022/06/23 06:19:17;;;;;;;11.07;4.45;;;;;;;31.04;44.03;97929.31;5324769;26;20065;-82
2022/06/23 06:21:49;;;;;;;9.38;4.43;;;;;;;30.72;44.41;97928.13;5325996;26;20081;-83
2022/06/23 06:24:19;;;;;;;9.02;4.22;;;;;;;30.64;44.75;97931.81;5325709;26;20094;-82
2022/06/23 06:26:47;;;;;;;11.65;3.83;;;;;;;31.21;42.66;97935.19;5345698;26;20048;-82
2022/06/23 06:29:21;;;;;;;10.25;3.87;;;;;;;30.37;43.76;97922.78;5325941;26;20135;-82
2022/06/23 06:31:55;;;;;;;6.87;3.55;;;;;;;29.57;46.05;97931.88;5326213;26;20071;-82
2022/06/23 06:34:31;;;;;;;7.68;3.55;;;;;;;28.45;50.12;97928.56;5345816;26;20107;-81
2022/06/23 06:36:58;;;;;;;6.80;3.53;;;;;;;30.48;42.83;97932.88;5345245;26;20446;-82
2022/06/23 06:39:33;;;;;;;6.45;3.03;;;;;;;32.38;38.64;97938.28;5345525;26;20135;-82
2022/06/23 06:42:09;;;;;;;3.95;2.33;;;;;;;32.63;35.26;97934.94;5326074;26;20064;-82
2022/06/23 06:44:41;;;;;;;5.63;2.60;;;;;;;33.02;33.73;97934.06;5346386;26;20555;-82
2022/06/23 06:47:27;;;;;;;5.22;2.72;;;;;;;32.44;32.87;97934.78;5346815;26;20073;-82
2022/06/23 06:49:58;;;;;;;6.53;2.85;;;;;;;32.64;32.90;97932.06;5346313;26;20060;-83
2022/06/23 06:52:26;;;;;;;6.32;3.30;;;;;;;32.81;34.42;97941.28;5346275;26;20474;-83
2022/06/23 06:55:04;;;;;;;5.68;2.90;;;;;;;32.50;36.40;97947.28;5346664;26;20075;-81
2022/06/23 06:57:48;;;;;;;6.68;2.87;;;;;;;32.04;36.87;97949.13;5327206;26;20059;-82
2022/06/23 07:00:21;;;;;;;6.87;3.17;;;;;;;31.10;38.33;97947.19;5346407;26;20415;-82
2022/06/23 07:02:52;;;;;;;7.03;3.10;;;;;;;30.19;40.15;97955.19;5327036;26;20471;-82
2022/06/23 07:05:22;;;;;;;6.47;3.17;;;;;;;29.80;39.96;97950.31;5326474;26;20056;-82
2022/06/23 07:08:05;;;;;;;6.85;3.12;;;;;;;30.57;38.69;97946.88;5346548;26;20144;-82
2022/06/23 07:10:39;;;;;;;7.07;3.17;;;;;;;29.67;41.66;97956.31;5346546;26;20229;-83
2022/06/23 07:13:59;;;;;;;6.03;3.35;;;;;;;30.52;41.69;97959.97;5326550;26;20473;-82
2022/06/23 07:16:35;;;;;;;9.93;3.80;;;;;;;30.85;41.25;97952.19;5251381;26;20068;-83
2022/06/23 07:19:05;;;;;;;;;;;;;;;31.52;40.65;97954.16;5326861;26;20097;-83
2022/06/23 07:21:55;;;;;;;7.80;3.70;;;;;;;31.18;39.89;97955.03;5346510;26;20020;-83
2022/06/23 07:24:58;;;;;;;8.55;3.62;;;;;;;31.02;38.57;97956.16;5326921;26;20430;-84
2022/06/23 07:27:49;;;;;;;6.47;3.20;;;;;;;31.35;40.02;97955.50;5288166;26;20127;-84
2022/06/23 07:30:19;;;;;;;7.78;3.90;;;;;;;29.99;42.31;97963.97;5346485;26;20048;-83
2022/06/23 07:32:55;;;;;;;9.35;3.97;;;;;;;31.37;40.23;97959.66;5346135;26;20128;-84
2022/06/23 07:35:39;;;;;;;8.23;3.50;;;;;;;31.20;38.23;97954.84;5346733;26;20106;-84
2022/06/23 07:38:08;;;;;;;7.47;3.47;;;;;;;29.26;40.64;97965.84;5326896;26;20117;-84
2022/06/23 07:41:12;;;;;;;7.80;3.62;;;;;;;29.89;40.97;97962.47;5326118;26;20057;-84
2022/06/23 07:43:59;;;;;;;9.45;4.30;;;;;;;30.49;40.77;97973.63;5326956;26;20078;-84
2022/06/23 07:46:26;;;;;;;;;;;;;;;31.50;38.43;97974.03;5346823;26;20080;-84
2022/06/23 07:48:53;;;;;;;8.75;4.45;;;;;;;32.17;37.58;97981.16;5346104;26;19968;-84
2022/06/23 07:51:20;;;;;;;10.85;4.57;;;;;;;32.52;35.75;97977.28;5346495;26;20048;-85
2022/06/23 07:53:50;;;;;;;11.38;4.62;;;;;;;31.22;40.48;97982.13;5345622;26;20056;-85
2022/06/23 07:56:22;;;;;;;8.35;4.43;;;;;;;31.54;39.79;97976.09;5326886;26;20119;-84
2022/06/23 07:58:53;;;;;;;9.32;3.53;;;;;;;30.75;41.32;97975.69;5346446;26;20751;-84
2022/06/23 08:01:36;;;;;;;9.30;4.20;;;;;;;30.41;38.98;97977.28;5345827;26;20364;-84
2022/06/23 08:04:11;;;;;;;8.32;3.90;;;;;;;31.83;38.45;97977.62;5308781;26;20067;-83
2022/06/23 08:06:38;;;;;;;10.73;4.25;;;;;;;32.47;35.84;97977.09;5326880;26;20139;-83
2022/06/23 08:09:24;;;;;;;10.52;4.65;;;;;;;33.14;35.07;97977.78;5345944;26;20051;-83
2022/06/23 08:14:41;;;;;;;7.35;3.50;;;;;;;31.16;38.78;97985.53;5329638;26;20124;-83
2022/06/23 08:17:13;;;;;;;7.50;3.72;;;;;;;33.11;32.84;97983.56;5326751;26;20076;-83
2022/06/23 08:19:55;;;;;;;7.82;3.87;;;;;;;33.10;34.09;97973.91;5346004;26;20087;-82
2022/06/23 08:22:25;;;;;;;7.32;3.50;;;;;;;32.97;34.36;97976.63;5326339;26;20402;-83
2022/06/23 08:24:59;;;;;;;;;;;;;;;32.03;35.13;97972.34;5327918;26;20060;-83
2022/06/23 08:27:47;;;;;;;7.20;3.30;;;;;;;32.19;34.23;97981.78;5329659;26;19968;-82
2022/06/23 08:30:17;;;;;;;7.00;3.37;;;;;;;30.97;37.06;97982.59;5345991;26;20056;-82
2022/06/23 08:32:46;;;;;;;5.75;3.20;;;;;;;31.91;35.05;97996.13;5326679;26;20077;-82
2022/06/23 08:35:42;;;;;;;7.00;3.37;;;;;;;31.66;35.68;97987.81;5326850;26;20113;-83
2022/06/23 08:38:38;;;;;;;6.60;3.25;;;;;;;30.94;37.53;97984.81;5346506;26;20762;-83
2022/06/23 08:41:13;;;;;;;8.18;3.37;;;;;;;30.57;37.85;97991.31;5323784;26;20066;-83
2022/06/23 08:44:00;;;;;;;8.93;3.37;;;;;;;32.22;34.96;97989.37;5345985;26;20096;-84
2022/06/23 08:46:46;;;;;;;6.72;3.55;;;;;;;32.89;33.32;97991.03;5326833;26;20383;-83
2022/06/23 08:49:27;;;;;;;7.22;3.97;;;;;;;32.61;34.51;97993.09;5346360;26;20106;-82
2022/06/23 08:52:05;;;;;;;8.75;3.97;;;;;;;31.65;36.52;97999.50;5345842;26;20067;-84
2022/06/23 08:54:41;;;;;;;7.07;3.40;;;;;;;32.55;34.47;98002.78;5346384;26;20097;-82
2022/06/23 08:57:14;;;;;;;6.20;2.25;;;;;;;33.83;33.40;98005.72;5345986;26;20076;-84
2022/06/23 09:00:00;;;;;;;6.22;2.40;;;;;;;31.48;30.52;98002.75;5346190;26;20064;-83
2022/06/23 09:02:58;;;;;;;6.43;2.33;;;;;;;30.27;33.48;97996.81;5326884;26;20048;-82
2022/06/23 09:06:13;;;;;;;5.28;2.30;;;;;;;30.94;31.96;97990.13;5312866;26;20184;-83
2022/06/23 09:09:21;;;;;;;4.32;2.28;;;;;;;29.64;35.04;97988.59;5234502;27;20077;-83
2022/06/23 09:11:51;;;;;;;;;;;;;;;30.86;30.62;97992.97;5234174;27;20076;-84
2022/06/23 09:14:31;;;;;;;5.57;2.42;;;;;;;31.18;32.07;97999.50;5323729;26;20375;-82
2022/06/23 09:17:07;;;;;;;4.68;2.33;;;;;;;31.32;32.48;97994.06;5346454;26;20096;-84
2022/06/23 09:19:58;;;;;;;4.00;2.40;;;;;;;32.26;30.14;97992.47;5345595;26;20112;-83
2022/06/23 09:22:44;;;;;;;4.20;2.15;;;;;;;33.35;28.12;98000.78;5326491;26;20581;-84
2022/06/23 09:25:39;;;;;;;5.45;2.72;;;;;;;31.62;30.69;97991.09;5346208;26;20063;-83
2022/06/23 09:28:10;;;;;;;5.22;3.10;;;;;;;33.17;28.01;97993.41;5346293;26;20660;-83
2022/06/23 09:30:57;;;;;;;6.68;2.83;;;;;;;33.49;27.53;97991.66;5346311;26;20112;-83
2022/06/23 09:34:12;;;;;;;6.97;2.55;;;;;;;33.64;27.76;97991.41;5346375;26;20056;-84
2022/06/23 09:37:21;;;;;;;4.97;2.40;;;;;;;32.47;29.03;97986.94;5327081;26;20093;-84
2022/06/23 09:40:23;;;;;;;5.30;2.47;;;;;;;33.65;26.94;97993.03;5303816;26;20103;-83
2022/06/23 09:43:22;;;;;;;8.45;2.30;;;;;;;32.23;29.18;97986.53;5303963;26;20132;-83
2022/06/23 09:46:06;;;;;;;3.90;2.00;;;;;;;32.39;29.02;97989.81;5296855;26;20131;-82
2022/06/23 09:48:56;;;;;;;4.25;2.28;;;;;;;31.89;28.47;97987.47;5346740;26;20072;-84
2022/06/23 09:51:31;;;;;;;4.05;2.20;;;;;;;33.19;27.39;97977.19;5346439;26;20048;-84
2022/06/23 09:54:20;;;;;;;3.33;1.83;;;;;;;33.25;28.17;97985.16;5326451;26;20116;-83
2022/06/23 09:56:56;;;;;;;2.97;1.85;;;;;;;30.71;25.27;97977.09;5346567;26;20060;-83
2022/06/23 09:59:41;;;;;;;4.47;1.90;;;;;;;31.85;24.76;97982.78;5326247;26;20436;-83
2022/06/23 10:02:31;;;;;;;5.53;2.00;;;;;;;32.77;24.33;97982.81;5345408;26;20063;-83
2022/06/23 10:05:23;;;;;;;5.20;2.70;;;;;;;31.28;27.93;97984.81;5332573;26;20072;-82
2022/06/23 10:08:05;;;;;;;4.93;2.10;;;;;;;30.28;30.31;97985.12;5346755;26;20049;-84
2022/06/23 10:11:11;;;;;;;4.25;2.10;;;;;;;31.53;28.03;97989.63;5345836;26;20437;-82
2022/06/23 10:13:47;;;;;;;5.82;2.35;;;;;;;31.72;26.89;97988.87;5294563;26;20047;-80
2022/06/23 10:16:40;;;;;;;3.65;1.92;;;;;;;30.59;30.51;97994.59;5325864;26;20159;-80
2022/06/23 10:19:25;;;;;;;5.82;2.40;;;;;;;30.18;28.37;97979.31;5346320;26;20112;-80
2022/06/23 10:22:08;;;;;;;4.32;2.10;;;;;;;29.97;27.93;97985.44;5345743;26;20052;-81
2022/06/23 10:25:06;;;;;;;5.57;2.30;;;;;;;30.35;27.38;97988.69;5346420;26;20100;-80
2022/06/23 10:28:20;;;;;;;5.90;2.40;;;;;;;30.96;26.99;97985.47;5304800;26;20064;-80
2022/06/23 10:30:59;;;;;;;4.85;2.60;;;;;;;30.30;28.98;97990.25;5216966;27;20071;-80
2022/06/23 10:34:03;;;;;;;5.57;2.40;;;;;;;32.42;26.19;97976.06;5343424;26;20395;-80
2022/06/23 10:36:45;;;;;;;4.43;2.20;;;;;;;31.54;28.31;97981.44;5326712;26;20127;-82
2022/06/23 10:39:44;;;;;;;5.45;2.58;;;;;;;29.99;29.46;97977.25;5346524;26;20415;-81
2022/06/23 10:42:53;;;;;;;8.00;2.65;;;;;;;30.30;30.79;97991.09;5326479;26;20074;-82
2022/06/23 10:45:43;;;;;;;4.87;2.50;;;;;;;30.90;28.65;97979.06;5315820;26;20052;-81
2022/06/23 10:48:39;;;;;;;4.37;2.50;;;;;;;30.71;29.12;97995.72;5346574;26;20041;-81
2022/06/23 10:51:27;;;;;;;4.28;2.40;;;;;;;32.08;28.08;97985.06;5346137;26;20174;-82
2022/06/23 10:54:13;;;;;;;3.40;2.20;;;;;;;32.58;27.85;97993.53;5346772;26;20060;-82
2022/06/23 10:57:02;;;;;;;7.68;2.53;;;;;;;31.87;28.17;97986.06;5346315;26;20100;-82
2022/06/23 11:00:20;;;;;;;4.50;2.40;;;;;;;32.45;26.16;97989.84;5346471;26;20086;-82
2022/06/23 11:03:03;;;;;;;6.53;2.65;;;;;;;33.67;25.53;97989.09;5326939;26;20474;-82
2022/06/23 11:05:54;;;;;;;5.65;2.50;;;;;;;32.76;25.26;97991.84;5346758;26;20112;-82
2022/06/23 11:08:37;;;;;;;6.35;2.60;;;;;;;33.04;24.62;97980.09;5346464;26;20053;-82
2022/06/23 11:11:13;;;;;;;5.15;2.35;;;;;;;34.78;24.34;97985.03;5346208;26;20103;-81
2022/06/23 11:14:09;;;;;;;3.50;1.77;;;;;;;32.57;26.04;97967.84;5327013;26;20115;-82
2022/06/23 11:16:46;;;;;;;3.58;2.17;;;;;;;32.41;26.08;97969.06;5346546;26;20103;-82
2022/06/23 11:19:29;;;;;;;4.57;2.40;;;;;;;32.19;27.00;97963.91;5326202;26;20083;-83
2022/06/23 11:22:16;;;;;;;3.42;1.98;;;;;;;33.46;24.11;97970.69;5346275;26;20101;-83
2022/06/23 11:24:46;;;;;;;4.22;2.15;;;;;;;33.29;24.14;97972.19;5346133;26;20113;-83
2022/06/23 11:27:49;;;;;;;3.83;2.00;;;;;;;33.57;23.11;97971.88;5327648;26;20529;-82
2022/06/23 11:30:38;;;;;;;5.37;1.90;;;;;;;33.97;22.83;97967.13;5326796;26;20131;-82
2022/06/23 11:33:15;;;;;;;5.68;2.00;;;;;;;33.89;21.49;97965.53;5346204;26;20069;-82
2022/06/23 11:36:07;;;;;;;4.37;1.98;;;;;;;31.56;22.94;97957.22;5346541;26;20080;-82
2022/06/23 11:38:55;;;;;;;5.25;2.00;;;;;;;30.59;26.47;97954.66;5345800;26;20080;-83
2022/06/23 11:41:45;;;;;;;2.25;1.60;;;;;;;30.42;26.03;97959.47;5326743;26;20063;-83
2022/06/23 11:44:37;;;;;;;3.25;1.80;;;;;;;29.86;25.06;97956.69;5346567;26;20116;-82
2022/06/23 11:47:04;;;;;;;2.92;1.58;;;;;;;29.70;24.03;97949.81;5346191;26;20112;-82
2022/06/23 11:49:43;;;;;;;3.83;1.80;;;;;;;30.22;24.79;97964.63;5346346;26;20091;-83
2022/06/23 11:52:16;;;;;;;6.00;1.83;;;;;;;30.47;23.07;97951.72;5346164;26;20058;-84
2022/06/23 11:54:59;;;;;;;3.12;1.40;;;;;;;30.43;24.78;97950.47;5346587;26;20044;-83
2022/06/23 11:57:38;;;;;;;4.68;1.80;;;;;;;29.78;24.70;97955.00;5346521;26;20090;-82
2022/06/23 12:00:18;;;;;;;3.47;1.70;;;;;;;30.04;24.95;97951.75;5346101;26;20455;-82
2022/06/23 12:03:40;;;;;;;4.45;1.70;;;;;;;29.26;26.02;97950.72;5346535;26;20390;-82
2022/06/23 12:06:31;;;;;;;3.22;1.70;;;;;;;30.05;25.65;97950.75;5341755;26;20051;-83
2022/06/23 12:09:26;;;;;;;4.85;1.58;;;;;;;30.62;24.08;97943.59;5346275;26;20342;-83
2022/06/23 12:11:57;;;;;;;5.05;1.70;;;;;;;31.74;22.81;97948.66;5346071;26;20415;-82
2022/06/23 12:14:24;;;;;;;3.10;1.70;;;;;;;30.85;24.15;97949.53;5345644;26;20135;-83
2022/06/23 12:16:59;;;;;;;3.03;1.70;;;;;;;30.77;22.98;97957.69;5326673;26;20454;-83
2022/06/23 12:19:53;;;;;;;3.50;1.70;;;;;;;31.44;21.60;97954.31;5325660;26;20056;-82
2022/06/23 12:22:22;;;;;;;4.68;1.60;;;;;;;30.54;23.00;97939.28;5345995;26;20100;-83
2022/06/23 12:25:08;;;;;;;3.35;1.40;;;;;;;31.13;22.59;97943.31;5326412;26;20076;-82
2022/06/23 12:28:02;;;;;;;2.43;1.50;;;;;;;31.14;20.56;97939.62;5326025;26;20462;-82
2022/06/23 12:30:35;;;;;;;3.70;1.45;;;;;;;31.73;21.05;97945.16;5341748;26;20071;-82
2022/06/23 12:33:22;;;;;;;2.72;1.50;;;;;;;31.22;21.52;97942.97;5326865;26;20084;-82
2022/06/23 12:36:01;;;;;;;3.00;1.60;;;;;;;30.77;21.97;97939.03;5346046;26;20048;-83
2022/06/23 12:38:50;;;;;;;1.95;1.42;;;;;;;30.52;21.73;97944.81;5326612;26;20052;-83
2022/06/23 12:41:27;;;;;;;2.90;1.42;;;;;;;29.99;21.16;97942.69;5325786;26;20053;-84
2022/06/23 12:44:09;;;;;;;4.32;1.50;;;;;;;30.09;20.68;97949.34;5345597;26;20361;-83
2022/06/23 12:46:48;;;;;;;3.28;1.60;;;;;;;30.53;21.52;97929.66;5326814;26;20135;-82